Latest Weather Observations for Alice Springs Airport

IDD60801

Issued at 2:05 pm CST Saturday 1 November 2014 (issued every 30 minutes, with the page automatically refreshed every 10 minutes)

About weather observations | Map of weather stations | Latest weather observations for NT | Other Formats
Station Details ID: 015590 Name: ALICE SPRINGS AIRPORT Lat: -23.80 Lon: 133.89 Height: 546.0 m
Data from the previous 72 hours. | See also: Recent months at Alice Springs Airport
Date/Time
CST
Temp
°C
App
Temp
°C
Dew
Point
Rel
Hum
%
Delta-T
°C
Wind Press
QNH
hPa
Press
MSL
hPa
Rain
since 9 am
mm
Dir
 
Spd
km/h
Gust
km/h
Spd
kts
Gust
kts
01/02:00pm 26.8 24.0 12.5 41 8.5 E 19 26 10 14 1015.7 1012.4 0.0
01/01:30pm 26.8 24.4 12.7 41 8.4 SE 17 28 9 15 1016.1 1012.7 0.0
01/01:00pm 26.3 23.5 13.1 44 7.9 SSE 20 32 11 17 1016.5 1013.1 0.0
01/12:30pm 25.8 23.5 13.1 45 7.6 SE 17 26 9 14 1016.8 1013.4 0.0
01/12:00pm 25.8 23.2 13.1 45 7.6 SSE 19 26 10 14 1016.9 1013.5 0.0
01/11:30am 25.5 21.6 13.3 46 7.3 ESE 26 32 14 17 1017.3 1014.0 0.0
01/11:00am 24.8 22.3 14.0 51 6.5 SSE 20 28 11 15 1017.6 1014.3 0.0
01/10:30am 24.3 21.1 14.2 53 6.1 SSE 24 30 13 16 1017.5 1014.2 0.0
01/10:00am 24.7 20.2 13.7 50 6.6 S 30 35 16 19 1017.3 1014.0 0.0
01/09:30am 26.8 24.4 10.2 35 9.5 ENE 13 19 7 10 1016.8 1013.4 0.0
01/09:00am 26.8 24.9 10.4 35 9.4 N 11 15 6 8 1016.7 1014.0 0.0
01/08:30am 25.8 24.3 10.6 38 8.7 N 9 11 5 6 1016.5 1013.7 0.0
01/08:00am 24.4 22.3 11.0 43 7.7 NNE 13 17 7 9 1016.2 1013.4 0.0
01/07:30am 24.0 24.3 10.9 43 7.5 CALM 0 0 0 0 1016.0 1013.2 0.0
01/07:00am 23.0 21.7 9.9 43 7.3 ESE 7 9 4 5 1016.0 1013.2 0.0
01/06:30am 22.8 20.8 10.1 44 7.1 NNE 11 13 6 7 1015.3 1012.6 0.0
01/06:00am 22.7 21.0 10.0 44 7.1 ESE 9 11 5 6 1014.7 1011.9 0.0
01/05:30am 21.9 19.5 10.1 47 6.6 E 13 15 7 8 1013.8 1011.1 0.0
01/05:00am 21.9 19.6 10.3 47 6.5 E 13 15 7 8 1013.5 1010.8 0.0
01/04:30am 22.2 22.6 11.1 49 6.3 CALM 0 0 0 0 1013.8 1011.1 0.0
01/04:00am 22.7 21.2 10.7 46 6.8 NNE 9 13 5 7 1013.2 1010.4 0.0
01/03:30am 22.8 21.7 10.8 46 6.8 S 7 11 4 6 1013.0 1010.2 0.0
01/03:00am 22.7 23.1 11.3 48 6.5 CALM 0 4 0 2 1013.3 1010.5 0.0
01/02:30am 23.5 22.2 11.1 45 7.1 WNW 9 11 5 6 1013.2 1010.4 0.0
01/02:00am 24.2 23.5 12.0 46 7.1 SSW 7 11 4 6 1013.4 1010.7 0.0
01/01:30am 26.5 22.2 7.7 30 10.3 SW 20 28 11 15 1013.5 1010.8 0.0
01/01:00am 26.7 19.9 7.0 28 10.7 SW 32 48 17 26 1012.4 1009.6 0.0
01/12:58am 26.6 20.6 7.1 29 10.6 SW 28 48 15 26 1012.3 1009.5 0.0
01/12:30am 24.0 22.6 8.8 38 8.4 NNW 6 7 3 4 1010.7 1007.9 0.0
01/12:00am 23.6 22.5 10.1 42 7.6 N 6 7 3 4 1010.6 1007.8 0.0
 
Date/Time
CST
Temp
°C
App
Temp
°C
Dew
Point
Rel
Hum
%
Delta-T
°C
Wind Press
QNH
hPa
Press
MSL
hPa
Rain
since 9 am
mm
Dir
 
Spd
km/h
Gust
km/h
Spd
kts
Gust
kts
31/11:30pm 24.4 23.8 9.1 37 8.5 W 2 9 1 5 1011.2 1008.4 0.0
31/11:00pm 23.7 21.3 8.6 38 8.3 NW 11 15 6 8 1011.3 1008.5 0.0
31/10:30pm 23.5 21.5 8.8 39 8.1 WSW 9 11 5 6 1010.9 1008.1 0.0
31/10:00pm 23.1 21.0 8.4 39 8.0 ESE 9 13 5 7 1010.4 1007.6 0.0
31/09:30pm 23.6 23.7 10.3 43 7.5 CALM 0 0 0 0 1011.0 1008.2 0.0
31/09:00pm 25.1 23.4 9.7 37 8.7 N 9 11 5 6 1010.8 1008.0 0.0
31/08:30pm 25.7 23.3 8.8 34 9.4 ESE 11 13 6 7 1010.5 1007.7 0.0
31/08:00pm 26.1 24.9 10.4 37 9.0 ESE 7 7 4 4 1010.5 1007.7 0.0
31/07:30pm 26.3 26.4 10.0 36 9.3 CALM 0 0 0 0 1010.7 1007.9 0.0
31/07:00pm 27.7 25.3 9.9 32 10.2 NW 13 17 7 9 1010.7 1007.9 0.0
31/06:30pm 27.6 25.5 11.2 36 9.6 W 13 19 7 10 1010.6 1007.8 0.0
31/06:00pm 29.0 24.8 8.1 27 11.7 WSW 20 28 11 15 1011.5 1008.7 0.0
31/05:30pm 30.0 23.3 7.3 24 12.6 WSW 32 39 17 21 1011.2 1008.4 0.0
31/05:00pm 31.2 25.4 4.6 18 14.2 SW 24 32 13 17 1011.1 1008.3 0.0
31/04:30pm 32.0 26.9 3.9 17 14.9 SW 20 30 11 16 1010.8 1008.0 0.0
31/04:00pm 32.6 26.3 3.8 16 15.3 SW 26 33 14 18 1010.8 1008.0 0.0
31/03:30pm 32.9 27.6 3.0 15 15.7 WSW 20 28 11 15 1010.9 1008.1 0.0
31/03:00pm 33.3 26.9 0.9 12 16.5 W 24 30 13 16 1011.2 1008.4 0.0
31/02:30pm 33.3 26.3 2.1 14 16.2 W 28 33 15 18 1011.4 1008.6 0.0
31/02:00pm 34.1 29.0 0.8 12 17.0 W 17 30 9 16 1011.4 1008.6 0.0
31/01:30pm 34.8 30.3 -0.4 10 17.7 NW 13 26 7 14 1011.7 1009.0 0.0
31/01:00pm 34.6 29.8 -0.1 11 17.5 NW 15 26 8 14 1012.3 1009.5 0.0
31/12:30pm 34.2 29.3 2.2 13 16.7 N 17 28 9 15 1012.6 1009.8 0.0
31/12:00pm 33.7 30.9 3.0 14 16.2 NNW 7 13 4 7 1012.8 1010.0 0.0
31/11:30am 33.3 30.6 2.8 14 16.0 E 6 15 3 8 1013.2 1010.4 0.0
31/11:00am 32.1 29.5 3.0 16 15.2 NNW 6 13 3 7 1013.5 1010.8 0.0
31/10:30am 31.3 29.1 5.4 19 14.0 ESE 6 9 3 5 1014.0 1011.2 0.0
31/10:00am 29.7 26.2 1.3 16 14.2 N 9 15 5 8 1014.4 1011.6 0.0
31/09:30am 28.6 25.6 1.9 18 13.4 NNE 7 9 4 5 1014.7 1011.9 0.0
31/09:00am 27.7 25.7 2.5 19 12.7 WNW 2 6 1 3 1014.8 1012.0 0.0
31/08:30am 27.7 23.2 -0.2 16 13.4 WSW 13 15 7 8 1015.0 1012.3 0.0
31/08:00am 27.0 22.5 -0.6 16 13.1 W 13 19 7 10 1015.3 1012.6 0.0
31/07:30am 26.6 22.9 0.1 17 12.7 WNW 9 15 5 8 1014.9 1012.1 0.0
31/07:00am 25.4 24.0 3.4 24 11.1 CALM 0 0 0 0 1014.6 1011.8 0.0
31/06:30am 24.6 21.0 0.8 21 11.4 WNW 9 17 5 9 1014.2 1011.4 0.0
31/06:00am 23.7 21.5 1.2 22 10.8 SSW 2 7 1 4 1013.7 1011.0 0.0
31/05:30am 25.4 20.0 -1.4 17 12.4 SW 17 28 9 15 1013.5 1010.8 0.0
31/05:11am 24.4 16.4 -2.5 16 12.1 WSW 30 35 16 19 1013.1 1010.3 0.0
31/05:00am 23.7 19.5 -0.7 20 11.3 SW 11 15 6 8 1012.4 1009.6 0.0
31/04:30am 23.3 19.6 0.0 21 10.9 N 9 9 5 5 1011.6 1008.8 0.0
31/04:00am 23.1 19.6 1.4 24 10.4 ENE 9 11 5 6 1010.9 1008.1 0.0
31/03:30am 25.6 20.8 0.3 19 12.1 NE 15 17 8 9 1011.0 1008.2 0.0
31/03:00am 25.7 19.4 -1.0 17 12.5 NE 22 26 12 14 1010.6 1007.8 0.0
31/02:30am 25.5 22.2 2.6 22 11.4 ENE 9 9 5 5 1012.1 1009.3 0.0
31/02:00am 25.8 22.2 0.8 19 12.1 ENE 9 13 5 7 1012.1 1009.3 0.0
31/01:30am 25.7 21.7 2.7 22 11.5 ENE 13 17 7 9 1011.8 1009.1 0.0
31/01:00am 26.2 22.0 1.9 20 12.0 NNE 13 15 7 8 1012.7 1009.9 0.0
31/12:30am 26.4 23.3 3.4 22 11.7 WNW 9 11 5 6 1013.4 1010.7 0.0
31/12:00am 25.8 21.6 1.8 21 11.8 NW 13 13 7 7 1013.7 1011.0 0.0
 
Date/Time
CST
Temp
°C
App
Temp
°C
Dew
Point
Rel
Hum
%
Delta-T
°C
Wind Press
QNH
hPa
Press
MSL
hPa
Rain
since 9 am
mm
Dir
 
Spd
km/h
Gust
km/h
Spd
kts
Gust
kts
30/11:30pm 26.0 22.8 3.3 23 11.5 N 9 11 5 6 1013.8 1011.1 0.0
30/11:00pm 26.0 23.4 4.2 24 11.2 N 7 9 4 5 1014.0 1011.2 0.0
30/10:30pm 26.5 23.7 2.9 21 11.9 NW 7 11 4 6 1014.4 1011.6 0.0
30/10:00pm 27.3 24.4 2.4 20 12.5 N 7 9 4 5 1014.2 1011.4 0.0
30/09:30pm 27.6 24.5 3.4 21 12.4 E 9 11 5 6 1014.1 1011.3 0.0
30/09:00pm 28.3 23.9 0.5 16 13.6 SE 13 15 7 8 1014.1 1011.3 0.0
30/08:30pm 28.8 23.6 0.4 16 13.9 SSE 17 22 9 12 1014.1 1011.3 0.0
30/08:00pm 29.3 22.8 0.4 15 14.2 S 24 35 13 19 1013.8 1011.1 0.0
30/07:30pm 30.0 21.9 -0.4 14 14.8 S 32 41 17 22 1013.5 1010.8 0.0
30/07:03pm 30.5 20.9 -1.3 12 15.3 S 39 57 21 31 1012.7 1009.9 0.0
30/07:00pm 30.6 20.3 -1.4 12 15.4 S 43 57 23 31 1012.7 1009.9 0.0
30/06:50pm 31.2 23.7 -1.6 12 15.8 S 28 52 15 28 1012.4 1009.6 0.0
30/06:30pm 33.7 26.4 -6.7 7 18.2 SSE 24 35 13 19 1011.8 1009.1 0.0
30/06:00pm 34.6 25.6 -6.5 7 18.7 S 33 44 18 24 1011.4 1008.6 0.0
30/05:30pm 35.8 29.1 -8.4 5 19.7 SSE 20 32 11 17 1010.9 1008.1 0.0
30/05:00pm 35.9 29.8 -8.0 6 19.7 SE 17 24 9 13 1010.9 1008.1 0.0
30/04:30pm 36.6 32.0 -4.5 7 19.6 S 11 17 6 9 1010.9 1008.1 0.0
30/04:00pm 37.1 32.7 -2.8 8 19.6 SSE 11 17 6 9 1010.8 1008.0 0.0
30/03:30pm 36.9 30.5 -6.5 6 20.1 ESE 19 26 10 14 1010.9 1008.1 0.0
30/03:00pm 36.9 32.6 -1.4 9 19.2 S 11 19 6 10 1011.1 1008.3 0.0
30/02:30pm 37.2 32.2 -4.7 7 20.0 SSW 13 20 7 11 1011.5 1008.7 0.0
30/02:00pm 36.3 32.0 -1.7 9 18.9 SSW 11 26 6 14 1011.9 1009.2 0.0
30/01:30pm 36.2 31.3 -3.1 8 19.1 SSE 13 19 7 10 1012.4 1009.6 0.0
30/01:00pm 36.9 30.9 -6.6 6 20.1 ESE 17 26 9 14 1012.9 1010.1 0.0
30/12:30pm 36.0 30.8 -6.3 6 19.5 ESE 13 20 7 11 1013.4 1010.7 0.0
30/12:00pm 35.2 30.7 -6.9 6 19.1 SSE 9 17 5 9 1014.1 1011.3 0.0
30/11:30am 34.8 30.5 -5.2 7 18.6 WNW 9 11 5 6 1014.6 1011.8 0.0
30/11:00am 34.9 29.7 -6.1 7 18.8 E 13 20 7 11 1015.1 1012.4 0.0
30/10:30am 33.9 28.3 -6.1 7 18.2 NE 15 26 8 14 1015.5 1012.8 0.0
30/10:00am 32.7 26.0 -10.5 5 18.1 E 19 30 10 16 1016.0 1013.2 0.0
30/09:30am 31.9 26.4 -9.4 6 17.5 E 13 19 7 10 1016.1 1013.3 0.0
30/09:00am 29.4 24.3 -9.6 7 16.1 ESE 11 17 6 9 1016.1 1013.3 0.0
30/08:30am 28.0 23.1 -7.4 9 15.0 ESE 11 15 6 8 1016.2 1013.4 0.0
30/08:00am 26.8 21.8 -7.8 9 14.4 ESE 11 15 6 8 1016.0 1013.2 0.0
30/07:30am 24.1 20.2 -4.3 15 12.3 SE 7 11 4 6 1015.8 1013.1 0.0
30/07:00am 21.6 19.2 -3.5 18 10.8 CALM 0 4 0 2 1015.6 1012.9 0.0
30/06:30am 17.6 14.5 1.2 33 7.5 SSW 7 7 4 4 1015.4 1012.7 0.0
30/06:00am 17.2 13.9 -0.9 29 7.9 W 6 9 3 5 1014.9 1012.1 0.0
30/05:30am 17.7 13.5 -4.3 22 9.0 NW 9 11 5 6 1014.6 1011.8 0.0
30/05:00am 17.6 13.8 -3.7 23 8.8 W 7 9 4 5 1014.5 1011.7 0.0
30/04:30am 17.8 14.4 -0.9 28 8.2 WNW 7 7 4 4 1014.3 1011.5 0.0
30/04:00am 17.7 15.2 -4.3 22 9.0 CALM 0 0 0 0 1014.4 1011.6 0.0
30/03:30am 18.5 16.8 1.8 32 7.8 CALM 0 0 0 0 1014.5 1011.7 0.0
30/03:00am 19.2 16.1 -2.8 22 9.4 N 4 7 2 4 1014.6 1011.8 0.0
30/02:30am 19.6 15.9 -3.2 21 9.7 S 7 9 4 5 1014.6 1011.8 0.0
30/02:00am 20.7 17.3 -0.8 23 9.7 ESE 7 9 4 5 1014.8 1012.0 0.0
30/01:30am 23.1 18.1 -3.9 16 11.7 E 13 15 7 8 1014.9 1012.1 0.0
30/01:00am 22.6 17.8 -2.9 18 11.2 E 13 13 7 7 1015.0 1012.3 0.0
30/12:30am 23.0 18.8 -3.7 16 11.6 E 9 11 5 6 1015.4 1012.7 0.0
30/12:00am 23.9 19.2 -1.6 18 11.6 E 13 13 7 7 1015.7 1013.0 0.0
 
Date/Time
CST
Temp
°C
App
Temp
°C
Dew
Point
Rel
Hum
%
Delta-T
°C
Wind Press
QNH
hPa
Press
MSL
hPa
Rain
since 9 am
mm
Dir
 
Spd
km/h
Gust
km/h
Spd
kts
Gust
kts
29/11:30pm 24.9 19.9 -4.1 14 12.7 ESE 13 13 7 7 1016.1 1013.3 0.0
29/11:00pm 25.1 20.2 -3.1 15 12.6 ENE 13 13 7 7 1016.4 1013.6 0.0
29/10:30pm 26.3 21.8 -3.3 14 13.3 E 11 13 6 7 1016.2 1013.4 0.0
29/10:00pm 26.7 22.2 -3.6 13 13.6 E 11 11 6 6 1016.2 1013.4 0.0
29/09:30pm 27.0 22.9 -3.3 13 13.7 ENE 9 11 5 6 1016.0 1013.2 0.0
29/09:00pm 26.9 21.9 -1.2 16 13.2 E 15 19 8 10 1015.7 1013.0 0.0
29/08:30pm 28.7 23.4 -3.5 12 14.7 E 15 17 8 9 1015.4 1012.7 0.0
29/08:00pm 30.7 24.7 -6.5 8 16.4 ESE 17 17 9 9 1015.1 1012.4 0.0
29/07:30pm 30.5 25.5 -4.3 10 15.9 ESE 13 17 7 9 1014.9 1012.1 0.0
29/07:00pm 31.3 26.4 -3.4 10 16.2 ESE 13 17 7 9 1014.5 1011.7 0.0
29/06:30pm 33.0 27.2 -4.5 9 17.4 ESE 17 20 9 11 1014.2 1011.4 0.0
29/06:00pm 34.1 28.9 -2.5 9 17.7 SE 15 24 8 13 1014.0 1011.2 0.0
29/05:30pm 34.4 30.0 -2.1 9 17.8 SE 11 19 6 10 1013.7 1011.0 0.0
29/05:00pm 34.3 30.8 1.3 12 17.0 SE 9 20 5 11 1013.8 1011.1 0.0
29/04:30pm 35.1 30.4 -2.0 9 18.2 ESE 13 19 7 10 1014.0 1011.2 0.0
29/04:00pm 34.9 30.9 -2.6 9 18.2 ENE 9 17 5 9 1014.1 1011.3 0.0
29/03:30pm 35.1 30.4 -2.0 9 18.2 SSE 13 17 7 9 1014.3 1011.5 0.0
29/03:00pm 34.7 30.8 -1.7 10 17.9 SSW 9 19 5 10 1014.6 1011.8 0.0
29/02:30pm 35.0 30.3 -1.8 9 18.1 SE 13 20 7 11 1014.9 1012.1 0.0

Other Formats:

Comma delimited format used in spreadsheet applications
http://www.bom.gov.au/fwo/IDD60801/IDD60801.94326.axf

JavaScript Object Notation format (JSON) in row-major order
http://www.bom.gov.au/fwo/IDD60801/IDD60801.94326.json